Time;durP1;ratioP1;P1;durP2;ratioP2;P2;SDS_P1;SDS_P2;PMS_P1;PMS_P2;Temp;Humidity;BMP_temperature;BMP_pressure;BME280_temperature;BME280_humidity;BME280_pressure;Samples;Min_cycle;Max_cycle;Signal;HPM_P1;HPM_P2
2021/08/27 00:01:20;;;;;;;4.43;2.97;;;;;;;15.20;87.97;96122.50;5075809;28;20198;-60
2021/08/27 00:03:45;;;;;;;3.73;3.10;;;;;;;15.38;87.57;96129.97;5076228;28;20174;-63
2021/08/27 00:06:10;;;;;;;4.23;3.20;;;;;;;15.38;87.61;96129.97;5076349;28;20734;-60
2021/08/27 00:08:36;;;;;;;6.33;3.40;;;;;;;15.48;86.54;96126.56;5076469;28;20249;-60
2021/08/27 00:11:01;;;;;;;5.40;3.30;;;;;;;15.23;87.20;96127.25;5076547;28;20246;-60
2021/08/27 00:13:26;;;;;;;5.23;2.90;;;;;;;15.31;88.27;96118.81;5076073;28;20548;-63
2021/08/27 00:15:52;;;;;;;5.00;2.90;;;;;;;15.30;88.46;96125.97;5072815;28;20225;-60
2021/08/27 00:18:17;;;;;;;5.17;2.87;;;;;;;15.41;87.88;96117.03;5076295;28;20175;-60
2021/08/27 00:20:43;;;;;;;8.90;3.30;;;;;;;14.99;89.56;96110.22;5074911;28;20669;-63
2021/08/27 00:23:08;;;;;;;4.23;2.83;;;;;;;15.25;88.35;96120.63;5071825;28;20175;-60
2021/08/27 00:25:34;;;;;;;5.20;2.77;;;;;;;15.12;88.46;96121.16;5057022;28;20253;-63
2021/08/27 00:27:59;;;;;;;3.90;3.00;;;;;;;15.27;88.96;96115.09;5054913;28;20171;-60
2021/08/27 00:30:25;;;;;;;3.30;3.10;;;;;;;15.36;89.05;96122.25;5056111;28;20168;-63
2021/08/27 00:32:50;;;;;;;3.47;2.73;;;;;;;15.25;88.38;96125.16;5055716;28;20242;-63
2021/08/27 00:35:15;;;;;;;3.13;2.83;;;;;;;14.98;89.19;96124.53;5055395;28;20633;-63
2021/08/27 00:37:41;;;;;;;7.90;3.37;;;;;;;15.14;89.54;96121.69;5056419;28;20254;-63
2021/08/27 00:40:07;;;;;;;4.43;3.33;;;;;;;15.46;87.32;96118.88;5068339;28;20255;-63
2021/08/27 00:42:34;;;;;;;3.73;2.70;;;;;;;15.35;88.46;96122.53;5076181;28;20625;-60
2021/08/27 00:45:00;;;;;;;5.83;3.07;;;;;;;15.36;88.51;96124.13;5075684;28;20421;-63
2021/08/27 00:47:25;;;;;;;5.13;3.00;;;;;;;15.07;88.87;96130.91;5075756;28;20446;-60
2021/08/27 00:49:51;;;;;;;5.17;3.63;;;;;;;15.06;89.16;96127.47;5075669;28;20591;-61
2021/08/27 00:52:16;;;;;;;5.13;3.60;;;;;;;15.04;90.04;96131.41;5075664;28;20687;-60
2021/08/27 00:54:49;;;;;;;5.10;3.33;;;;;;;15.16;88.85;96124.84;5069935;28;20194;-60
2021/08/27 00:57:15;;;;;;;7.73;3.73;;;;;;;14.86;90.96;96129.22;5075685;28;20529;-63
2021/08/27 00:59:41;;;;;;;3.97;2.73;;;;;;;14.75;91.99;96132.88;5075406;28;20440;-60
2021/08/27 01:02:07;;;;;;;5.10;3.03;;;;;;;14.97;91.38;96130.84;5075707;28;20266;-63
2021/08/27 01:04:37;;;;;;;6.10;3.57;;;;;;;15.01;89.97;96131.94;5074923;28;20481;-63
2021/08/27 01:07:09;;;;;;;3.83;2.80;;;;;;;15.12;90.90;96133.56;5075777;28;20401;-60
2021/08/27 01:09:43;;;;;;;3.50;2.97;;;;;;;15.43;89.14;96132.66;5062691;28;20847;-63
2021/08/27 01:12:26;;;;;;;4.03;3.30;;;;;;;15.53;88.28;96132.66;5055357;28;20405;-60
2021/08/27 01:15:03;;;;;;;4.50;3.27;;;;;;;15.69;87.22;96128.19;5054960;28;20758;-63
2021/08/27 01:17:34;;;;;;;4.20;3.20;;;;;;;15.77;87.09;96128.47;5055445;28;20892;-60
2021/08/27 01:20:41;;;;;;;4.50;3.30;;;;;;;15.95;87.02;96127.94;5055268;28;20454;-63
2021/08/27 01:23:42;;;;;;;3.20;2.90;;;;;;;16.06;86.35;96126.09;5072891;28;20423;-63
2021/08/27 01:26:09;;;;;;;4.63;2.97;;;;;;;16.06;86.47;96123.44;5073290;28;20839;-60
2021/08/27 01:28:41;;;;;;;5.03;3.40;;;;;;;16.26;85.59;96124.22;5059863;28;20414;-63
2021/08/27 01:31:25;;;;;;;6.83;3.00;;;;;;;16.52;84.75;96117.06;5054913;28;20881;-61
2021/08/27 01:34:14;;;;;;;4.77;3.33;;;;;;;16.18;85.00;96126.59;5054373;28;20401;-60
2021/08/27 01:36:42;;;;;;;4.23;3.23;;;;;;;15.86;86.77;96132.19;5055041;28;20954;-63
2021/08/27 01:39:11;;;;;;;3.53;3.17;;;;;;;15.76;87.60;96124.22;5065058;28;20429;-63
2021/08/27 01:41:40;;;;;;;4.80;3.30;;;;;;;15.72;87.43;96132.97;5074679;28;20467;-60
2021/08/27 01:44:08;;;;;;;5.67;3.70;;;;;;;15.64;88.10;96126.31;5074187;28;20447;-63
2021/08/27 01:46:36;;;;;;;4.27;3.30;;;;;;;15.68;87.92;96130.03;5073728;28;20462;-63
2021/08/27 01:49:04;;;;;;;4.17;3.27;;;;;;;15.68;88.14;96135.34;5074555;28;20895;-61
2021/08/27 01:51:31;;;;;;;3.40;3.10;;;;;;;15.66;88.06;96129.50;5074648;28;20798;-60
2021/08/27 01:53:57;;;;;;;4.23;3.20;;;;;;;15.77;87.50;96125.81;5072343;28;20895;-63
2021/08/27 01:56:23;;;;;;;4.87;3.43;;;;;;;15.83;87.55;96124.78;5074250;28;20451;-60
2021/08/27 01:58:49;;;;;;;4.00;3.10;;;;;;;16.09;86.70;96123.69;5074516;28;20467;-63
2021/08/27 02:01:17;;;;;;;3.80;3.40;;;;;;;15.95;87.46;96121.84;5074231;28;20289;-60
2021/08/27 02:03:44;;;;;;;4.20;3.83;;;;;;;16.00;87.39;96120.00;5073914;28;20405;-63
2021/08/27 02:06:09;;;;;;;4.00;2.90;;;;;;;15.91;88.03;96121.56;5074263;28;20541;-63
2021/08/27 02:08:35;;;;;;;5.67;3.67;;;;;;;16.01;87.51;96132.19;5073668;28;20445;-60
2021/08/27 02:11:01;;;;;;;6.70;3.33;;;;;;;15.92;88.26;96130.34;5074358;28;20379;-63
2021/08/27 02:13:28;;;;;;;5.40;3.90;;;;;;;15.92;88.33;96131.13;5073658;28;20813;-61
2021/08/27 02:15:53;;;;;;;3.87;3.53;;;;;;;16.25;86.99;96135.09;5074021;28;20428;-60
2021/08/27 02:18:19;;;;;;;6.50;3.90;;;;;;;16.18;87.21;96130.06;5055518;28;20496;-63
2021/08/27 02:20:45;;;;;;;4.77;3.63;;;;;;;16.25;86.80;96121.84;5054049;28;20199;-60
2021/08/27 02:23:13;;;;;;;3.97;3.13;;;;;;;16.43;86.29;96124.72;5053765;28;20167;-63
2021/08/27 02:25:42;;;;;;;5.03;3.23;;;;;;;16.52;86.43;96134.84;5053948;28;20451;-61
2021/08/27 02:28:07;;;;;;;4.40;3.17;;;;;;;16.60;86.09;96123.66;5053994;28;20409;-60
2021/08/27 02:30:34;;;;;;;2.97;2.77;;;;;;;16.70;85.56;96134.25;5053927;28;20758;-63
2021/08/27 02:33:04;;;;;;;4.23;3.83;;;;;;;16.72;85.35;96132.13;5053518;28;20164;-60
2021/08/27 02:35:31;;;;;;;4.07;3.67;;;;;;;16.69;85.37;96122.84;5053902;28;20526;-63
2021/08/27 02:38:00;;;;;;;5.80;3.87;;;;;;;16.67;85.43;96130.28;5053828;28;20433;-63
2021/08/27 02:40:25;;;;;;;4.13;3.30;;;;;;;16.71;85.50;96125.22;5053546;28;20449;-61
2021/08/27 02:42:50;;;;;;;5.60;4.27;;;;;;;16.65;85.69;96123.66;5068415;28;20846;-61
2021/08/27 02:45:16;;;;;;;5.73;4.47;;;;;;;16.54;86.73;96122.88;5073503;28;20189;-63
2021/08/27 02:47:42;;;;;;;4.33;3.50;;;;;;;16.57;86.57;96126.84;5072412;28;20185;-61
2021/08/27 02:50:08;;;;;;;10.10;3.97;;;;;;;16.70;86.21;96131.59;5073476;28;20169;-60
2021/08/27 02:53:15;;;;;;;4.00;3.50;;;;;;;16.72;85.65;96121.53;5073627;28;20405;-61
2021/08/27 02:55:45;;;;;;;5.97;4.30;;;;;;;16.80;85.80;96119.09;5070043;28;20440;-63
2021/08/27 02:58:17;;;;;;;8.03;4.37;;;;;;;16.18;87.61;96129.25;5073363;28;20412;-60
2021/08/27 03:00:56;;;;;;;5.53;4.27;;;;;;;16.40;87.14;96129.78;5070582;28;20449;-60
2021/08/27 03:03:24;;;;;;;4.80;4.30;;;;;;;16.43;87.23;96130.03;5073141;28;20436;-61
2021/08/27 03:05:54;;;;;;;5.87;5.33;;;;;;;16.46;87.28;96134.00;5073309;28;20449;-61
2021/08/27 03:08:24;;;;;;;4.60;4.20;;;;;;;16.59;87.04;96122.09;5073534;28;20951;-61
2021/08/27 03:11:01;;;;;;;4.80;4.40;;;;;;;16.56;87.57;96130.59;5073685;28;20907;-60
2021/08/27 03:13:40;;;;;;;6.47;5.00;;;;;;;16.63;86.94;96129.22;5056571;28;20448;-60
2021/08/27 03:16:09;;;;;;;6.27;5.50;;;;;;;16.54;86.76;96125.53;5053044;28;20782;-61
2021/08/27 03:18:54;;;;;;;7.43;4.83;;;;;;;16.39;87.70;96131.66;5053156;28;20493;-63
2021/08/27 03:21:31;;;;;;;7.43;5.10;;;;;;;16.43;87.76;96123.94;5053155;28;20499;-64
2021/08/27 03:24:01;;;;;;;5.70;5.20;;;;;;;16.42;87.83;96119.69;5052668;28;20437;-60
2021/08/27 03:26:30;;;;;;;7.40;5.40;;;;;;;16.44;87.62;96123.69;5054395;28;20460;-61
2021/08/27 03:29:03;;;;;;;7.00;6.30;;;;;;;16.22;88.60;96131.13;5071887;28;20409;-63
2021/08/27 03:31:29;;;;;;;8.07;7.10;;;;;;;16.17;89.96;96125.03;5073272;28;20447;-63
2021/08/27 03:33:58;;;;;;;8.37;7.57;;;;;;;16.21;89.41;96126.91;5072977;28;20909;-60
2021/08/27 03:36:28;;;;;;;8.40;6.63;;;;;;;16.28;89.58;96124.75;5072900;28;20773;-60
2021/08/27 03:38:55;;;;;;;9.00;8.10;;;;;;;16.12;90.61;96114.44;5072890;28;20923;-63
2021/08/27 03:41:24;;;;;;;8.87;8.00;;;;;;;16.18;90.71;96127.41;5069901;28;20461;-63
2021/08/27 03:43:50;;;;;;;8.23;6.70;;;;;;;16.33;90.75;96118.66;5052679;28;20418;-60
2021/08/27 03:46:15;;;;;;;9.00;8.10;;;;;;;16.37;90.01;96131.13;5052914;28;20422;-60
2021/08/27 03:48:41;;;;;;;8.70;7.90;;;;;;;16.44;89.73;96139.59;5052866;28;20412;-63
2021/08/27 03:51:08;;;;;;;9.00;8.17;;;;;;;16.04;92.14;96133.50;5052858;28;20160;-61
2021/08/27 03:53:36;;;;;;;8.73;7.83;;;;;;;16.16;90.57;96128.75;5052573;28;20195;-63
2021/08/27 03:56:02;;;;;;;8.90;8.00;;;;;;;15.84;92.57;96123.69;5069374;28;20433;-60
2021/08/27 03:58:28;;;;;;;9.70;7.60;;;;;;;15.94;91.39;96118.38;5073186;28;20452;-63
2021/08/27 04:00:56;;;;;;;7.93;6.80;;;;;;;15.91;92.32;96121.56;5072700;28;20485;-60
2021/08/27 04:03:22;;;;;;;9.30;8.50;;;;;;;15.93;90.80;96123.97;5072510;28;20408;-60
2021/08/27 04:06:05;;;;;;;11.60;7.60;;;;;;;16.05;90.90;96121.84;5072528;28;20425;-63
2021/08/27 04:08:35;;;;;;;8.23;6.83;;;;;;;16.01;91.74;96129.53;5065588;28;20414;-63
2021/08/27 04:11:00;;;;;;;8.23;7.47;;;;;;;16.17;90.96;96132.97;5074072;28;20477;-60
2021/08/27 04:13:26;;;;;;;10.10;8.10;;;;;;;16.14;90.40;96130.88;5076363;28;20867;-63
2021/08/27 04:15:52;;;;;;;7.93;7.13;;;;;;;15.93;91.79;96137.22;5076550;28;20213;-63
2021/08/27 04:18:17;;;;;;;8.10;7.13;;;;;;;16.10;91.20;96135.09;5076220;28;20660;-63
2021/08/27 04:20:43;;;;;;;8.10;6.93;;;;;;;16.15;90.73;96141.19;5076216;28;20800;-61
2021/08/27 04:23:08;;;;;;;7.23;6.33;;;;;;;16.18;90.06;96140.66;5076265;28;20633;-63
2021/08/27 04:25:33;;;;;;;7.77;6.63;;;;;;;16.23;89.51;96138.00;5059544;28;20286;-60
2021/08/27 04:27:59;;;;;;;7.33;5.77;;;;;;;16.19;88.92;96139.63;5056115;28;20171;-63
2021/08/27 04:30:25;;;;;;;8.17;6.50;;;;;;;16.14;89.62;96146.78;5056279;28;20164;-61
2021/08/27 04:32:50;;;;;;;6.33;5.80;;;;;;;15.97;89.96;96152.34;5055664;28;20168;-61
2021/08/27 04:35:15;;;;;;;6.23;5.63;;;;;;;16.03;90.16;96156.56;5056402;28;20214;-60
2021/08/27 04:37:41;;;;;;;8.67;7.73;;;;;;;16.18;89.66;96153.91;5055905;28;20175;-60
2021/08/27 04:40:07;;;;;;;6.47;5.87;;;;;;;16.17;89.33;96157.66;5055567;28;20192;-60
2021/08/27 04:42:32;;;;;;;7.83;6.13;;;;;;;16.28;88.67;96151.28;5054695;28;20187;-63
2021/08/27 04:44:58;;;;;;;6.40;5.80;;;;;;;16.01;89.72;96156.06;5055594;28;20425;-60
2021/08/27 04:47:23;;;;;;;10.00;7.07;;;;;;;15.88;90.95;96163.72;5060757;28;20232;-63
2021/08/27 04:49:48;;;;;;;8.10;6.03;;;;;;;16.01;90.93;96158.72;5076171;28;20163;-61
2021/08/27 04:52:14;;;;;;;8.43;7.57;;;;;;;15.81;91.19;96158.69;5075757;28;20192;-64
2021/08/27 04:54:39;;;;;;;7.47;6.70;;;;;;;15.81;91.88;96158.69;5075241;28;20233;-64
2021/08/27 04:57:05;;;;;;;9.50;8.50;;;;;;;15.50;93.20;96158.88;5069823;28;20247;-60
2021/08/27 04:59:31;;;;;;;8.73;7.77;;;;;;;15.70;93.32;96161.56;5055567;28;20642;-60
2021/08/27 05:01:59;;;;;;;9.70;8.73;;;;;;;15.65;92.89;96161.56;5055472;28;20574;-63
2021/08/27 05:04:24;;;;;;;9.90;9.00;;;;;;;15.24;95.81;96164.06;5055126;28;20951;-60
2021/08/27 05:06:50;;;;;;;10.37;9.40;;;;;;;15.24;95.49;96168.53;5055355;28;20445;-60
2021/08/27 05:09:17;;;;;;;10.93;9.80;;;;;;;15.27;95.51;96170.69;5055354;28;20688;-60
2021/08/27 05:11:42;;;;;;;11.53;10.43;;;;;;;14.69;98.94;96173.59;5060114;28;20193;-60
2021/08/27 05:14:08;;;;;;;11.07;10.07;;;;;;;15.08;97.77;96175.66;5074923;28;20413;-61
2021/08/27 05:16:33;;;;;;;12.27;11.07;;;;;;;15.31;96.08;96174.41;5073929;28;20201;-61
2021/08/27 05:18:58;;;;;;;14.10;11.80;;;;;;;15.65;94.48;96178.25;5075177;28;20162;-63
2021/08/27 05:21:24;;;;;;;12.57;11.27;;;;;;;15.53;94.31;96184.84;5055793;28;20206;-60
2021/08/27 05:23:50;;;;;;;12.07;10.87;;;;;;;15.60;94.58;96182.75;5054732;28;20638;-63
2021/08/27 05:26:16;;;;;;;12.00;10.30;;;;;;;15.86;93.47;96182.53;5055075;28;20184;-60
2021/08/27 05:28:41;;;;;;;13.40;12.00;;;;;;;15.62;94.16;96189.34;5054983;28;20425;-63
2021/08/27 05:31:09;;;;;;;13.47;11.27;;;;;;;15.41;95.62;96191.16;5071844;28;20170;-63
2021/08/27 05:33:35;;;;;;;13.00;11.70;;;;;;;15.49;94.79;96189.84;5074584;28;20636;-65
2021/08/27 05:36:00;;;;;;;14.83;13.27;;;;;;;15.52;94.88;96193.84;5075208;28;20428;-60
2021/08/27 05:38:26;;;;;;;12.30;11.10;;;;;;;15.73;93.62;96198.13;5074790;28;20163;-63
2021/08/27 05:40:51;;;;;;;12.63;11.33;;;;;;;15.55;94.79;96203.91;5074636;28;20194;-60
2021/08/27 05:43:16;;;;;;;12.07;10.97;;;;;;;15.59;94.19;96199.69;5074504;28;20649;-64
2021/08/27 05:45:41;;;;;;;12.57;11.47;;;;;;;15.78;93.62;96203.44;5058594;28;20196;-60
2021/08/27 05:48:07;;;;;;;12.20;10.87;;;;;;;15.93;92.85;96206.91;5069334;28;20178;-64
2021/08/27 05:50:33;;;;;;;12.53;11.20;;;;;;;15.39;93.57;96219.72;5074646;28;20201;-60
2021/08/27 05:52:58;;;;;;;11.30;10.20;;;;;;;15.22;95.36;96218.31;5074280;28;20170;-60
2021/08/27 05:55:24;;;;;;;11.47;10.00;;;;;;;15.23;95.21;96215.41;5074235;28;20190;-63
2021/08/27 05:57:49;;;;;;;10.20;9.17;;;;;;;15.46;94.20;96222.16;5074606;28;20186;-63
2021/08/27 06:00:15;;;;;;;10.97;9.60;;;;;;;15.71;93.52;96219.56;5074310;28;20680;-60
2021/08/27 06:02:40;;;;;;;9.13;8.23;;;;;;;14.80;97.73;96226.28;5073391;28;20198;-60
2021/08/27 06:05:06;;;;;;;9.30;8.50;;;;;;;15.18;96.01;96223.31;5074252;28;20567;-60
2021/08/27 06:07:31;;;;;;;9.40;8.50;;;;;;;15.25;96.08;96226.53;5074369;28;20189;-60
2021/08/27 06:09:57;;;;;;;10.43;9.10;;;;;;;15.59;94.11;96226.97;5074426;28;20589;-60
2021/08/27 06:12:22;;;;;;;8.87;7.60;;;;;;;15.86;92.48;96232.88;5074155;28;20679;-60
2021/08/27 06:14:48;;;;;;;9.87;7.00;;;;;;;15.98;91.71;96225.47;5073720;28;20214;-60
2021/08/27 06:17:13;;;;;;;8.93;7.07;;;;;;;16.07;90.82;96229.19;5062099;28;20184;-60
2021/08/27 06:19:38;;;;;;;7.03;6.33;;;;;;;16.16;89.86;96232.16;5054007;28;20171;-60
2021/08/27 06:22:04;;;;;;;7.47;6.80;;;;;;;16.15;89.05;96239.28;5054064;28;20199;-61
2021/08/27 06:24:29;;;;;;;9.20;6.50;;;;;;;15.71;90.32;96238.13;5053275;28;20202;-63
2021/08/27 06:26:56;;;;;;;7.47;5.90;;;;;;;15.95;90.42;96236.59;5054170;28;20649;-60
2021/08/27 06:29:21;;;;;;;5.80;5.23;;;;;;;16.21;89.23;96238.25;5054083;28;20592;-64
2021/08/27 06:31:47;;;;;;;9.73;6.73;;;;;;;16.17;88.23;96241.69;5063387;28;20417;-63
2021/08/27 06:34:12;;;;;;;6.17;5.37;;;;;;;16.11;88.35;96243.53;5073421;28;20177;-63
2021/08/27 06:36:37;;;;;;;6.00;5.47;;;;;;;15.82;90.25;96246.91;5074101;28;20162;-60
2021/08/27 06:39:03;;;;;;;6.03;5.50;;;;;;;15.88;89.64;96238.72;5072200;28;20277;-60
2021/08/27 06:41:28;;;;;;;6.43;5.67;;;;;;;16.11;89.32;96240.88;5053935;28;20191;-64
2021/08/27 06:43:54;;;;;;;7.20;5.60;;;;;;;16.21;88.64;96248.06;5053389;28;20168;-63
2021/08/27 06:46:22;;;;;;;7.40;5.63;;;;;;;16.24;88.21;96243.00;5053458;28;20717;-63
2021/08/27 06:48:48;;;;;;;5.10;4.70;;;;;;;16.05;89.19;96243.78;5056590;28;20178;-63
2021/08/27 06:51:14;;;;;;;5.80;5.10;;;;;;;16.32;88.18;96247.00;5058364;28;20467;-64
2021/08/27 06:53:39;;;;;;;6.40;5.20;;;;;;;16.32;87.90;96244.34;5053173;28;20410;-63
2021/08/27 06:56:05;;;;;;;5.60;5.10;;;;;;;16.36;87.68;96246.19;5071295;28;20204;-60
2021/08/27 06:58:31;;;;;;;6.43;5.77;;;;;;;16.15;88.94;96244.59;5073440;28;20174;-64
2021/08/27 07:00:57;;;;;;;7.97;5.00;;;;;;;16.48;88.43;96245.97;5073215;28;20186;-60
2021/08/27 07:03:24;;;;;;;6.90;5.50;;;;;;;15.78;90.43;96251.16;5071786;28;20518;-59
2021/08/27 07:05:50;;;;;;;5.60;5.10;;;;;;;15.10;93.99;96252.94;5072603;28;20527;-63
2021/08/27 07:08:15;;;;;;;7.17;5.50;;;;;;;15.53;92.05;96246.53;5073305;28;20499;-63
2021/08/27 07:10:41;;;;;;;4.47;4.10;;;;;;;15.29;92.49;96246.13;5073267;28;20167;-63
2021/08/27 07:13:06;;;;;;;6.83;5.07;;;;;;;15.24;93.06;96251.41;5072909;28;20174;-60
2021/08/27 07:15:33;;;;;;;6.03;5.03;;;;;;;14.92;95.56;96244.63;5073066;28;20661;-63
2021/08/27 07:17:58;;;;;;;6.20;4.40;;;;;;;15.43;92.36;96243.88;5073731;28;20166;-63
2021/08/27 07:20:24;;;;;;;6.23;4.57;;;;;;;15.32;91.23;96247.50;5070566;28;20803;-65
2021/08/27 07:22:50;;;;;;;4.73;4.17;;;;;;;15.49;91.85;96249.97;5072939;28;20166;-66
2021/08/27 07:25:16;;;;;;;5.97;4.10;;;;;;;15.91;89.21;96253.28;5072991;28;20437;-66
2021/08/27 07:27:42;;;;;;;4.63;4.30;;;;;;;15.68;88.60;96254.56;5073222;28;20166;-65
2021/08/27 07:30:09;;;;;;;6.10;4.70;;;;;;;15.50;89.14;96255.00;5073306;28;20482;-66
2021/08/27 07:32:35;;;;;;;4.47;4.10;;;;;;;15.78;88.44;96264.41;5072832;28;20412;-66
2021/08/27 07:35:01;;;;;;;4.50;3.83;;;;;;;16.15;87.46;96263.16;5061728;28;20837;-64
2021/08/27 07:37:27;;;;;;;5.53;3.80;;;;;;;16.37;85.75;96258.41;5056937;28;20179;-65
2021/08/27 07:39:52;;;;;;;5.10;3.97;;;;;;;16.13;85.42;96259.16;5052946;28;20278;-65
2021/08/27 07:42:17;;;;;;;5.93;3.77;;;;;;;15.98;84.28;96254.63;5052975;28;20905;-67
2021/08/27 07:44:43;;;;;;;4.73;2.73;;;;;;;16.10;82.84;96259.69;5054472;28;20194;-67
2021/08/27 07:47:08;;;;;;;7.30;2.87;;;;;;;16.00;84.17;96262.31;5057018;28;20241;-66
2021/08/27 07:49:34;;;;;;;2.97;2.77;;;;;;;16.11;83.51;96263.94;5056996;28;20353;-65
2021/08/27 07:52:00;;;;;;;5.70;3.27;;;;;;;16.02;83.53;96266.31;5065371;28;20218;-66
2021/08/27 07:54:26;;;;;;;4.63;3.13;;;;;;;16.06;84.97;96272.69;5084960;28;20221;-69
2021/08/27 07:56:51;;;;;;;3.87;3.10;;;;;;;16.06;83.18;96267.38;5068101;28;20524;-67
2021/08/27 07:59:17;;;;;;;2.90;2.63;;;;;;;16.59;82.91;96270.66;5072700;28;20194;-68
2021/08/27 08:01:42;;;;;;;7.83;2.70;;;;;;;16.90;79.07;96273.03;5064567;28;20199;-67
2021/08/27 08:04:08;;;;;;;2.60;2.33;;;;;;;16.97;80.66;96273.56;5082549;28;20174;-72
2021/08/27 08:06:35;;;;;;;3.00;1.90;;;;;;;17.05;76.90;96274.84;5097105;28;20176;-73
2021/08/27 08:09:04;;;;;;;3.30;2.10;;;;;;;16.33;75.84;96278.56;5086363;28;20170;-65
2021/08/27 08:11:29;;;;;;;2.30;1.80;;;;;;;15.90;79.26;96286.16;5075316;28;20428;-64
2021/08/27 08:13:55;;;;;;;2.73;1.60;;;;;;;16.47;78.67;96278.84;5059042;28;20414;-63
2021/08/27 08:16:20;;;;;;;4.00;1.47;;;;;;;16.50;76.43;96288.16;5063032;28;20202;-64
2021/08/27 08:18:46;;;;;;;1.80;1.70;;;;;;;16.89;77.32;96283.91;5063984;28;20177;-71
2021/08/27 08:21:12;;;;;;;1.83;1.20;;;;;;;17.00;75.49;96278.31;5061229;28;20234;-63
2021/08/27 08:23:38;;;;;;;2.20;1.50;;;;;;;17.16;75.42;96282.53;5060584;28;20167;-63
2021/08/27 08:26:03;;;;;;;1.30;1.20;;;;;;;17.38;73.56;96280.38;5058777;28;20544;-63
2021/08/27 08:28:29;;;;;;;4.60;1.43;;;;;;;17.50;72.37;96282.78;5063102;28;20186;-63
2021/08/27 08:30:54;;;;;;;3.47;1.50;;;;;;;17.56;72.77;96280.84;5058936;28;20254;-63
2021/08/27 08:33:20;;;;;;;3.90;1.53;;;;;;;17.62;72.81;96279.78;5062269;28;20545;-63
2021/08/27 08:35:45;;;;;;;3.57;1.83;;;;;;;17.82;73.15;96279.69;5064545;28;20234;-64
2021/08/27 08:38:11;;;;;;;2.20;1.40;;;;;;;17.36;74.58;96294.97;5063013;28;20696;-63
2021/08/27 08:40:41;;;;;;;4.07;1.97;;;;;;;16.62;75.14;96296.63;5060810;28;20977;-64
2021/08/27 08:43:07;;;;;;;3.27;1.83;;;;;;;16.48;76.94;96298.22;5060049;28;20187;-63
2021/08/27 08:45:35;;;;;;;1.63;1.47;;;;;;;17.02;76.66;96296.63;5060119;28;20507;-63
2021/08/27 08:48:01;;;;;;;2.00;1.77;;;;;;;17.13;76.29;96293.72;5063605;28;20433;-64
2021/08/27 08:50:27;;;;;;;2.50;1.63;;;;;;;17.45;74.45;96288.03;5062620;28;20425;-63
2021/08/27 08:52:54;;;;;;;5.70;2.10;;;;;;;17.43;74.85;96298.13;5068888;28;20449;-66
2021/08/27 08:55:20;;;;;;;2.40;1.50;;;;;;;17.34;74.67;96295.25;5067075;28;20436;-67
2021/08/27 08:57:46;;;;;;;1.80;1.40;;;;;;;17.48;72.97;96286.75;5061246;28;20511;-66
2021/08/27 09:00:12;;;;;;;2.20;1.60;;;;;;;17.26;72.18;96289.69;5061884;28;20556;-63
2021/08/27 09:02:37;;;;;;;3.00;1.70;;;;;;;17.17;73.28;96288.66;5063176;28;20224;-64
2021/08/27 09:05:03;;;;;;;1.80;1.20;;;;;;;17.13;73.35;96296.38;5067015;28;20597;-69
2021/08/27 09:07:29;;;;;;;4.77;1.30;;;;;;;16.90;74.43;96301.44;5075520;28;20171;-69
2021/08/27 09:09:57;;;;;;;1.43;1.23;;;;;;;16.99;72.58;96300.63;5075221;28;20413;-68
2021/08/27 09:12:25;;;;;;;1.67;1.40;;;;;;;16.83;72.75;96298.25;5074063;28;20887;-67
2021/08/27 09:15:02;;;;;;;2.67;1.50;;;;;;;17.39;73.63;96295.22;5074928;28;20511;-69
2021/08/27 09:17:31;;;;;;;2.73;1.40;;;;;;;17.69;72.87;96286.41;5075352;28;20405;-69
2021/08/27 09:19:57;;;;;;;3.63;1.40;;;;;;;17.65;70.94;96297.84;5062143;28;20454;-66
2021/08/27 09:22:23;;;;;;;2.60;1.40;;;;;;;17.84;70.40;96291.66;5055306;28;20516;-65
2021/08/27 09:25:06;;;;;;;1.87;1.10;;;;;;;18.09;69.02;96296.06;5054574;28;20583;-64
2021/08/27 09:27:35;;;;;;;3.20;1.53;;;;;;;17.74;69.93;96301.53;5055156;28;20214;-66
2021/08/27 09:30:00;;;;;;;3.13;1.53;;;;;;;18.06;71.16;96300.03;5055181;28;20402;-65
2021/08/27 09:32:29;;;;;;;1.30;1.20;;;;;;;18.25;72.99;96298.38;5055029;28;20418;-64
2021/08/27 09:35:24;;;;;;;1.80;1.43;;;;;;;18.14;69.20;96298.69;5082721;28;20201;-68
2021/08/27 09:37:54;;;;;;;1.53;1.43;;;;;;;18.02;69.71;96306.19;5062830;28;20807;-66
2021/08/27 09:40:20;;;;;;;2.50;1.57;;;;;;;17.77;70.19;96306.31;5054789;28;20456;-60
2021/08/27 09:42:50;;;;;;;3.97;1.63;;;;;;;17.09;70.17;96315.75;5054439;28;20414;-62
2021/08/27 09:45:18;;;;;;;3.40;2.00;;;;;;;16.92;72.26;96313.34;5054611;28;20328;-62
2021/08/27 09:48:04;;;;;;;2.03;1.70;;;;;;;17.26;72.15;96308.28;5054691;28;20813;-62
2021/08/27 09:50:31;;;;;;;3.80;2.20;;;;;;;17.12;71.64;96312.56;5059589;28;20771;-61
2021/08/27 09:53:04;;;;;;;2.43;1.87;;;;;;;17.38;72.20;96314.09;5074207;28;20413;-62
2021/08/27 09:55:32;;;;;;;3.30;1.57;;;;;;;17.93;72.47;96295.34;5074325;28;20433;-62
2021/08/27 09:58:02;;;;;;;3.67;2.27;;;;;;;17.91;68.13;96296.69;5074158;28;20412;-62
2021/08/27 10:00:28;;;;;;;2.10;1.47;;;;;;;17.75;69.54;96301.28;5069801;28;20459;-61
2021/08/27 10:02:54;;;;;;;2.07;1.80;;;;;;;18.08;69.53;96303.22;5069894;28;20421;-63
2021/08/27 10:05:37;;;;;;;7.03;2.70;;;;;;;18.01;66.77;96307.28;5081614;28;20203;-61
2021/08/27 10:08:37;;;;;;;4.10;2.43;;;;;;;18.22;67.73;96311.41;5069918;28;20405;-63
2021/08/27 10:11:21;;;;;;;2.43;2.23;;;;;;;18.20;68.23;96309.03;5069673;28;20837;-62
2021/08/27 10:13:47;;;;;;;4.43;2.90;;;;;;;18.22;67.91;96312.22;5070212;28;20534;-61
2021/08/27 10:16:13;;;;;;;4.13;2.57;;;;;;;18.20;68.26;96311.69;5070437;28;20446;-63
2021/08/27 10:18:39;;;;;;;2.57;2.27;;;;;;;18.29;69.36;96310.06;5076891;28;20179;-63
2021/08/27 10:21:07;;;;;;;2.70;2.50;;;;;;;18.15;69.15;96309.03;5054786;28;20461;-61
2021/08/27 10:23:33;;;;;;;5.23;2.60;;;;;;;17.38;72.38;96316.75;5049487;28;20213;-62
2021/08/27 10:26:13;;;;;;;2.73;2.40;;;;;;;17.08;70.27;96311.50;5050091;28;20449;-62
2021/08/27 10:28:38;;;;;;;2.20;2.10;;;;;;;17.13;69.51;96308.84;5050347;28;20198;-63
2021/08/27 10:31:04;;;;;;;2.33;2.10;;;;;;;17.53;69.08;96313.28;5050257;28;20897;-64
2021/08/27 10:33:38;;;;;;;2.17;2.07;;;;;;;17.31;68.54;96311.72;5049934;28;20178;-62
2021/08/27 10:36:30;;;;;;;2.93;2.33;;;;;;;17.81;70.76;96304.72;5065635;28;20438;-64
2021/08/27 10:38:57;;;;;;;3.30;2.00;;;;;;;16.95;69.78;96304.88;5090218;28;20481;-64
2021/08/27 10:41:43;;;;;;;2.93;2.30;;;;;;;16.89;71.19;96305.94;5088839;28;20469;-65
2021/08/27 10:44:13;;;;;;;2.90;1.80;;;;;;;16.87;69.59;96305.41;5049386;28;20855;-63
2021/08/27 10:46:44;;;;;;;2.40;2.07;;;;;;;17.11;68.57;96305.66;5049502;28;20416;-64
2021/08/27 10:49:11;;;;;;;1.87;1.77;;;;;;;17.36;70.93;96294.97;5049994;28;20410;-64
2021/08/27 10:51:38;;;;;;;3.37;2.40;;;;;;;17.50;71.35;96295.25;5069135;28;20520;-63
2021/08/27 10:54:05;;;;;;;2.70;2.50;;;;;;;17.42;70.49;96301.88;5068672;28;20476;-64
2021/08/27 10:56:44;;;;;;;2.47;2.20;;;;;;;17.44;71.29;96294.44;5069864;28;20491;-63
2021/08/27 10:59:11;;;;;;;1.83;1.50;;;;;;;17.73;71.77;96299.94;5069276;28;20413;-64
2021/08/27 11:01:44;;;;;;;5.30;2.07;;;;;;;17.68;67.96;96294.66;5069667;28;20456;-64
2021/08/27 11:04:19;;;;;;;2.43;1.77;;;;;;;18.24;67.02;96298.63;5068012;28;20846;-64
2021/08/27 11:06:52;;;;;;;2.23;1.57;;;;;;;18.29;63.97;96291.44;5069760;28;20406;-64
2021/08/27 11:09:35;;;;;;;1.77;1.50;;;;;;;18.60;64.19;96296.56;5057288;28;20433;-64
2021/08/27 11:12:03;;;;;;;1.83;1.60;;;;;;;18.70;60.16;96288.53;5048901;28;20978;-64
2021/08/27 11:14:28;;;;;;;2.20;1.60;;;;;;;18.71;64.14;96296.22;5051305;28;20450;-65
2021/08/27 11:16:56;;;;;;;2.77;2.03;;;;;;;18.57;66.44;96297.13;5052908;28;20504;-63
2021/08/27 11:19:30;;;;;;;2.57;1.80;;;;;;;18.08;68.17;96300.56;5052818;28;20216;-64
2021/08/27 11:22:09;;;;;;;5.40;2.20;;;;;;;17.64;69.86;96313.00;5053675;28;20457;-65
2021/08/27 11:24:34;;;;;;;6.90;2.37;;;;;;;17.37;71.21;96305.31;5076266;28;20930;-64
2021/08/27 11:27:16;;;;;;;3.10;2.00;;;;;;;17.64;72.57;96304.22;5071495;28;20422;-65
2021/08/27 11:29:44;;;;;;;3.70;1.90;;;;;;;17.85;68.84;96303.88;5066744;28;20545;-65
2021/08/27 11:32:31;;;;;;;2.90;2.03;;;;;;;17.66;66.51;96310.06;5071007;28;20814;-65
2021/08/27 11:34:59;;;;;;;3.60;1.83;;;;;;;17.72;67.19;96314.31;5068512;28;20807;-67
2021/08/27 11:37:39;;;;;;;4.47;2.10;;;;;;;17.34;66.77;96321.00;5091253;28;20404;-64